sensor_id;sensor_type;location;lat;lon;timestamp;pressure;altitude;pressure_sealevel;temperature;humidity
23131;BME280;11734;51.046;13.778;2022-09-02T00:02:26;70277.53;;;12.73;100.00
23131;BME280;11734;51.046;13.778;2022-09-02T00:04:55;70276.59;;;12.80;100.00
23131;BME280;11734;51.046;13.778;2022-09-02T00:07:22;70286.03;;;12.79;100.00
23131;BME280;11734;51.046;13.778;2022-09-02T00:09:49;70288.16;;;12.69;100.00
23131;BME280;11734;51.046;13.778;2022-09-02T00:12:17;70230.81;;;12.63;100.00
23131;BME280;11734;51.046;13.778;2022-09-02T00:14:44;70231.72;;;12.57;100.00
23131;BME280;11734;51.046;13.778;2022-09-02T00:17:11;70262.41;;;12.51;100.00
23131;BME280;11734;51.046;13.778;2022-09-02T00:19:38;70218.31;;;12.41;100.00
23131;BME280;11734;51.046;13.778;2022-09-02T00:22:06;70207.69;;;12.45;100.00
23131;BME280;11734;51.046;13.778;2022-09-02T00:24:33;70225.38;;;12.42;100.00
23131;BME280;11734;51.046;13.778;2022-09-02T00:27:01;70232.41;;;12.48;100.00
23131;BME280;11734;51.046;13.778;2022-09-02T00:29:29;70209.72;;;12.49;100.00
23131;BME280;11734;51.046;13.778;2022-09-02T00:31:57;70232.97;;;12.49;100.00
23131;BME280;11734;51.046;13.778;2022-09-02T00:34:25;70238.88;;;12.49;100.00
23131;BME280;11734;51.046;13.778;2022-09-02T00:36:52;70195.16;;;12.32;100.00
23131;BME280;11734;51.046;13.778;2022-09-02T00:39:19;70273.59;;;12.52;100.00
23131;BME280;11734;51.046;13.778;2022-09-02T00:41:47;70268.84;;;12.52;100.00
23131;BME280;11734;51.046;13.778;2022-09-02T00:44:17;70226.47;;;12.52;100.00
23131;BME280;11734;51.046;13.778;2022-09-02T00:46:45;70176.44;;;12.20;100.00
23131;BME280;11734;51.046;13.778;2022-09-02T00:52:00;70235.38;;;12.46;100.00
23131;BME280;11734;51.046;13.778;2022-09-02T00:54:34;70163.69;;;11.96;100.00
23131;BME280;11734;51.046;13.778;2022-09-02T00:57:10;70175.63;;;12.43;100.00
23131;BME280;11734;51.046;13.778;2022-09-02T00:59:53;70190.34;;;12.42;100.00
23131;BME280;11734;51.046;13.778;2022-09-02T01:02:23;70202.38;;;12.15;100.00
23131;BME280;11734;51.046;13.778;2022-09-02T01:04:52;70172.56;;;12.24;100.00
23131;BME280;11734;51.046;13.778;2022-09-02T01:07:26;70194.91;;;12.25;100.00
23131;BME280;11734;51.046;13.778;2022-09-02T01:09:55;70234.19;;;12.06;100.00
23131;BME280;11734;51.046;13.778;2022-09-02T01:12:24;70212.59;;;12.22;100.00
23131;BME280;11734;51.046;13.778;2022-09-02T01:14:53;70213.22;;;12.18;100.00
23131;BME280;11734;51.046;13.778;2022-09-02T01:17:24;70160.63;;;12.11;100.00
23131;BME280;11734;51.046;13.778;2022-09-02T01:19:56;70185.66;;;12.08;100.00
23131;BME280;11734;51.046;13.778;2022-09-02T01:22:29;70201.00;;;12.03;100.00
23131;BME280;11734;51.046;13.778;2022-09-02T01:25:02;70158.06;;;11.98;100.00
23131;BME280;11734;51.046;13.778;2022-09-02T01:27:31;70140.50;;;11.92;100.00
23131;BME280;11734;51.046;13.778;2022-09-02T01:30:00;70131.63;;;11.93;100.00
23131;BME280;11734;51.046;13.778;2022-09-02T01:32:29;70179.56;;;11.96;100.00
23131;BME280;11734;51.046;13.778;2022-09-02T01:34:57;70188.22;;;11.78;100.00
23131;BME280;11734;51.046;13.778;2022-09-02T01:37:26;70124.19;;;11.73;100.00
23131;BME280;11734;51.046;13.778;2022-09-02T01:39:53;70151.16;;;11.82;100.00
23131;BME280;11734;51.046;13.778;2022-09-02T01:42:24;70123.50;;;11.81;100.00
23131;BME280;11734;51.046;13.778;2022-09-02T01:44:52;70156.59;;;11.60;100.00
23131;BME280;11734;51.046;13.778;2022-09-02T01:47:24;70148.91;;;11.67;100.00
23131;BME280;11734;51.046;13.778;2022-09-02T01:49:51;70165.50;;;11.93;100.00
23131;BME280;11734;51.046;13.778;2022-09-02T01:52:21;70174.78;;;11.62;100.00
23131;BME280;11734;51.046;13.778;2022-09-02T01:54:50;70177.22;;;11.94;100.00
23131;BME280;11734;51.046;13.778;2022-09-02T01:57:18;70140.28;;;11.80;100.00
23131;BME280;11734;51.046;13.778;2022-09-02T01:59:45;70202.00;;;11.88;100.00
23131;BME280;11734;51.046;13.778;2022-09-02T02:02:16;70149.13;;;11.78;100.00
23131;BME280;11734;51.046;13.778;2022-09-02T02:04:47;70150.41;;;11.61;100.00
23131;BME280;11734;51.046;13.778;2022-09-02T02:07:18;70152.47;;;11.61;100.00
23131;BME280;11734;51.046;13.778;2022-09-02T02:09:46;70121.88;;;11.62;100.00
23131;BME280;11734;51.046;13.778;2022-09-02T02:12:16;70131.56;;;11.63;100.00
23131;BME280;11734;51.046;13.778;2022-09-02T02:14:43;70109.88;;;11.54;100.00
23131;BME280;11734;51.046;13.778;2022-09-02T02:17:11;70099.63;;;11.52;100.00
23131;BME280;11734;51.046;13.778;2022-09-02T02:19:39;70076.25;;;11.36;100.00
23131;BME280;11734;51.046;13.778;2022-09-02T02:22:07;70080.94;;;11.35;100.00
23131;BME280;11734;51.046;13.778;2022-09-02T02:24:35;70082.16;;;11.32;100.00
23131;BME280;11734;51.046;13.778;2022-09-02T02:27:03;70081.28;;;11.33;100.00
23131;BME280;11734;51.046;13.778;2022-09-02T02:29:31;70107.66;;;11.38;100.00
23131;BME280;11734;51.046;13.778;2022-09-02T02:31:59;70087.38;;;11.41;100.00
23131;BME280;11734;51.046;13.778;2022-09-02T02:34:26;70120.28;;;11.42;100.00
23131;BME280;11734;51.046;13.778;2022-09-02T02:36:54;70086.19;;;11.40;100.00
23131;BME280;11734;51.046;13.778;2022-09-02T02:39:21;70129.13;;;11.36;100.00
23131;BME280;11734;51.046;13.778;2022-09-02T02:41:50;70094.53;;;11.29;100.00
23131;BME280;11734;51.046;13.778;2022-09-02T02:44:17;70067.66;;;11.06;100.00
23131;BME280;11734;51.046;13.778;2022-09-02T02:46:45;70061.72;;;11.14;100.00
23131;BME280;11734;51.046;13.778;2022-09-02T02:49:13;70070.47;;;11.22;100.00
23131;BME280;11734;51.046;13.778;2022-09-02T02:51:41;70098.06;;;11.27;100.00
23131;BME280;11734;51.046;13.778;2022-09-02T02:54:09;70092.75;;;11.27;100.00
23131;BME280;11734;51.046;13.778;2022-09-02T02:56:37;70109.50;;;11.26;100.00
23131;BME280;11734;51.046;13.778;2022-09-02T02:59:05;70086.88;;;11.27;100.00
23131;BME280;11734;51.046;13.778;2022-09-02T03:01:33;70083.94;;;11.29;100.00
23131;BME280;11734;51.046;13.778;2022-09-02T03:04:03;70111.84;;;11.28;100.00
23131;BME280;11734;51.046;13.778;2022-09-02T03:06:31;70057.25;;;11.22;100.00
23131;BME280;11734;51.046;13.778;2022-09-02T03:08:59;70065.22;;;11.17;100.00
23131;BME280;11734;51.046;13.778;2022-09-02T03:11:27;70068.72;;;11.20;100.00
23131;BME280;11734;51.046;13.778;2022-09-02T03:13:56;70054.94;;;11.20;100.00
23131;BME280;11734;51.046;13.778;2022-09-02T03:16:23;70094.59;;;11.20;100.00
23131;BME280;11734;51.046;13.778;2022-09-02T03:18:53;70065.50;;;11.20;100.00
23131;BME280;11734;51.046;13.778;2022-09-02T03:21:21;70105.72;;;11.25;100.00
23131;BME280;11734;51.046;13.778;2022-09-02T03:23:49;70073.97;;;11.25;100.00
23131;BME280;11734;51.046;13.778;2022-09-02T03:26:21;70089.25;;;11.24;100.00
23131;BME280;11734;51.046;13.778;2022-09-02T03:28:53;70062.84;;;11.20;100.00
23131;BME280;11734;51.046;13.778;2022-09-02T03:31:24;70062.88;;;11.15;100.00
23131;BME280;11734;51.046;13.778;2022-09-02T03:33:53;70056.16;;;11.12;100.00
23131;BME280;11734;51.046;13.778;2022-09-02T03:36:30;70064.69;;;11.12;100.00
23131;BME280;11734;51.046;13.778;2022-09-02T03:38:59;70055.91;;;11.09;100.00
23131;BME280;11734;51.046;13.778;2022-09-02T03:41:28;70065.03;;;11.06;100.00
23131;BME280;11734;51.046;13.778;2022-09-02T03:43:56;70084.63;;;11.16;100.00
23131;BME280;11734;51.046;13.778;2022-09-02T03:46:24;70104.59;;;11.15;100.00
23131;BME280;11734;51.046;13.778;2022-09-02T03:48:51;70153.09;;;11.57;100.00
23131;BME280;11734;51.046;13.778;2022-09-02T03:51:22;70138.16;;;11.46;100.00
23131;BME280;11734;51.046;13.778;2022-09-02T03:53:50;70103.59;;;11.30;100.00
23131;BME280;11734;51.046;13.778;2022-09-02T03:56:21;70025.22;;;11.24;100.00
23131;BME280;11734;51.046;13.778;2022-09-02T03:58:51;70096.22;;;11.35;100.00
23131;BME280;11734;51.046;13.778;2022-09-02T04:01:25;70125.50;;;11.51;100.00
23131;BME280;11734;51.046;13.778;2022-09-02T04:04:04;70088.06;;;11.28;100.00
23131;BME280;11734;51.046;13.778;2022-09-02T04:06:33;70081.38;;;11.20;100.00
23131;BME280;11734;51.046;13.778;2022-09-02T04:09:03;70072.19;;;11.28;100.00
23131;BME280;11734;51.046;13.778;2022-09-02T04:11:32;70103.03;;;11.29;100.00
23131;BME280;11734;51.046;13.778;2022-09-02T04:13:59;70086.28;;;11.31;100.00
23131;BME280;11734;51.046;13.778;2022-09-02T04:16:28;70099.81;;;11.29;100.00
23131;BME280;11734;51.046;13.778;2022-09-02T04:19:03;70088.63;;;11.33;100.00
23131;BME280;11734;51.046;13.778;2022-09-02T04:21:35;70088.84;;;11.40;100.00
23131;BME280;11734;51.046;13.778;2022-09-02T04:24:09;70171.75;;;11.34;100.00
23131;BME280;11734;51.046;13.778;2022-09-02T04:26:39;70131.03;;;11.58;100.00
23131;BME280;11734;51.046;13.778;2022-09-02T04:29:14;70079.75;;;11.39;100.00
23131;BME280;11734;51.046;13.778;2022-09-02T04:31:42;70116.03;;;11.61;100.00
23131;BME280;11734;51.046;13.778;2022-09-02T04:34:10;70127.47;;;11.64;100.00
23131;BME280;11734;51.046;13.778;2022-09-02T04:36:39;70140.06;;;11.68;100.00
23131;BME280;11734;51.046;13.778;2022-09-02T04:39:08;70087.78;;;11.64;100.00
23131;BME280;11734;51.046;13.778;2022-09-02T04:41:39;70109.53;;;11.65;100.00
23131;BME280;11734;51.046;13.778;2022-09-02T04:44:09;70109.47;;;11.69;100.00
23131;BME280;11734;51.046;13.778;2022-09-02T04:46:39;70115.31;;;11.79;100.00
23131;BME280;11734;51.046;13.778;2022-09-02T04:49:11;70132.13;;;11.68;100.00
23131;BME280;11734;51.046;13.778;2022-09-02T04:51:41;70135.38;;;11.69;100.00
23131;BME280;11734;51.046;13.778;2022-09-02T04:54:09;70090.13;;;11.62;100.00
23131;BME280;11734;51.046;13.778;2022-09-02T04:56:40;70100.78;;;11.57;100.00
23131;BME280;11734;51.046;13.778;2022-09-02T04:59:09;70102.88;;;11.52;100.00
23131;BME280;11734;51.046;13.778;2022-09-02T05:01:41;70086.19;;;11.40;100.00
23131;BME280;11734;51.046;13.778;2022-09-02T05:04:14;70068.16;;;11.20;100.00
23131;BME280;11734;51.046;13.778;2022-09-02T05:06:46;70100.41;;;11.29;100.00
23131;BME280;11734;51.046;13.778;2022-09-02T05:09:18;70092.50;;;11.25;100.00
23131;BME280;11734;51.046;13.778;2022-09-02T05:11:54;70040.34;;;11.07;100.00
23131;BME280;11734;51.046;13.778;2022-09-02T05:14:30;70071.03;;;11.27;100.00
23131;BME280;11734;51.046;13.778;2022-09-02T05:17:02;70099.44;;;11.40;100.00
23131;BME280;11734;51.046;13.778;2022-09-02T05:19:37;70086.16;;;11.45;100.00
23131;BME280;11734;51.046;13.778;2022-09-02T05:22:05;70131.97;;;11.52;100.00
23131;BME280;11734;51.046;13.778;2022-09-02T05:24:37;70077.53;;;11.19;100.00
23131;BME280;11734;51.046;13.778;2022-09-02T05:27:11;70110.19;;;11.56;100.00
23131;BME280;11734;51.046;13.778;2022-09-02T05:29:40;70129.56;;;11.59;100.00
23131;BME280;11734;51.046;13.778;2022-09-02T05:32:12;70120.75;;;11.56;100.00
23131;BME280;11734;51.046;13.778;2022-09-02T05:34:45;70114.25;;;11.60;100.00
23131;BME280;11734;51.046;13.778;2022-09-02T05:37:12;70128.38;;;11.58;100.00
23131;BME280;11734;51.046;13.778;2022-09-02T05:39:43;70142.72;;;11.68;100.00
23131;BME280;11734;51.046;13.778;2022-09-02T05:42:11;70150.56;;;11.82;100.00
23131;BME280;11734;51.046;13.778;2022-09-02T05:44:39;70148.16;;;11.89;100.00
23131;BME280;11734;51.046;13.778;2022-09-02T05:47:13;70132.56;;;11.92;100.00
23131;BME280;11734;51.046;13.778;2022-09-02T05:49:42;70177.00;;;11.87;100.00
23131;BME280;11734;51.046;13.778;2022-09-02T05:52:13;70176.94;;;11.96;100.00
23131;BME280;11734;51.046;13.778;2022-09-02T05:54:47;70213.94;;;12.05;100.00
23131;BME280;11734;51.046;13.778;2022-09-02T05:57:18;70193.22;;;12.19;100.00
23131;BME280;11734;51.046;13.778;2022-09-02T05:59:57;70242.22;;;12.36;100.00
23131;BME280;11734;51.046;13.778;2022-09-02T06:02:39;70288.53;;;12.62;100.00
23131;BME280;11734;51.046;13.778;2022-09-02T06:05:11;70268.16;;;12.65;100.00
23131;BME280;11734;51.046;13.778;2022-09-02T06:07:44;70271.75;;;12.59;100.00
23131;BME280;11734;51.046;13.778;2022-09-02T06:10:12;70274.09;;;12.61;100.00
23131;BME280;11734;51.046;13.778;2022-09-02T06:12:41;70270.53;;;12.67;100.00
23131;BME280;11734;51.046;13.778;2022-09-02T06:15:10;70316.38;;;12.80;100.00
23131;BME280;11734;51.046;13.778;2022-09-02T06:17:40;70324.59;;;12.82;100.00
23131;BME280;11734;51.046;13.778;2022-09-02T06:20:10;70302.72;;;12.91;100.00
23131;BME280;11734;51.046;13.778;2022-09-02T06:22:41;70283.31;;;12.88;100.00
23131;BME280;11734;51.046;13.778;2022-09-02T06:25:09;70308.88;;;12.94;100.00
23131;BME280;11734;51.046;13.778;2022-09-02T06:27:37;70317.97;;;12.99;100.00
23131;BME280;11734;51.046;13.778;2022-09-02T06:30:05;70357.97;;;13.11;100.00
23131;BME280;11734;51.046;13.778;2022-09-02T06:32:33;70328.06;;;13.24;100.00
23131;BME280;11734;51.046;13.778;2022-09-02T06:35:06;70344.56;;;13.25;100.00
23131;BME280;11734;51.046;13.778;2022-09-02T06:37:35;70362.19;;;13.35;100.00
23131;BME280;11734;51.046;13.778;2022-09-02T06:40:04;70378.84;;;13.47;100.00
23131;BME280;11734;51.046;13.778;2022-09-02T06:42:32;70379.41;;;13.52;100.00
23131;BME280;11734;51.046;13.778;2022-09-02T06:45:20;70389.44;;;13.52;100.00
23131;BME280;11734;51.046;13.778;2022-09-02T06:47:52;70393.53;;;13.55;100.00
23131;BME280;11734;51.046;13.778;2022-09-02T06:50:20;70392.31;;;13.59;100.00
23131;BME280;11734;51.046;13.778;2022-09-02T06:52:49;70407.09;;;13.58;100.00
23131;BME280;11734;51.046;13.778;2022-09-02T06:55:18;70435.38;;;13.59;100.00
23131;BME280;11734;51.046;13.778;2022-09-02T06:57:46;70414.38;;;13.66;100.00
23131;BME280;11734;51.046;13.778;2022-09-02T07:00:14;70422.47;;;13.83;100.00
23131;BME280;11734;51.046;13.778;2022-09-02T07:02:43;70425.09;;;13.87;100.00
23131;BME280;11734;51.046;13.778;2022-09-02T07:05:33;70443.25;;;14.03;100.00
23131;BME280;11734;51.046;13.778;2022-09-02T07:08:00;70449.97;;;14.11;100.00
23131;BME280;11734;51.046;13.778;2022-09-02T07:10:28;70497.34;;;14.27;100.00
23131;BME280;11734;51.046;13.778;2022-09-02T07:12:56;70504.03;;;14.39;100.00
23131;BME280;11734;51.046;13.778;2022-09-02T07:15:24;70562.13;;;14.50;100.00
23131;BME280;11734;51.046;13.778;2022-09-02T07:17:52;70554.28;;;14.67;100.00
23131;BME280;11734;51.046;13.778;2022-09-02T07:20:32;70588.16;;;14.80;100.00
23131;BME280;11734;51.046;13.778;2022-09-02T07:23:02;70592.44;;;14.95;100.00
23131;BME280;11734;51.046;13.778;2022-09-02T07:25:33;70627.22;;;15.06;100.00
23131;BME280;11734;51.046;13.778;2022-09-02T07:28:00;70617.94;;;15.19;100.00
23131;BME280;11734;51.046;13.778;2022-09-02T07:30:32;70680.19;;;15.34;100.00
23131;BME280;11734;51.046;13.778;2022-09-02T07:33:10;70704.31;;;15.50;100.00
23131;BME280;11734;51.046;13.778;2022-09-02T07:35:42;70709.19;;;15.66;100.00
23131;BME280;11734;51.046;13.778;2022-09-02T07:38:11;70732.44;;;15.79;100.00
23131;BME280;11734;51.046;13.778;2022-09-02T07:40:40;70737.44;;;15.81;100.00
23131;BME280;11734;51.046;13.778;2022-09-02T07:43:10;70781.84;;;16.12;100.00
23131;BME280;11734;51.046;13.778;2022-09-02T07:45:40;70745.88;;;16.25;100.00
23131;BME280;11734;51.046;13.778;2022-09-02T07:48:10;70789.75;;;16.21;100.00
23131;BME280;11734;51.046;13.778;2022-09-02T07:50:38;70783.91;;;16.41;100.00
23131;BME280;11734;51.046;13.778;2022-09-02T07:53:09;70869.09;;;16.60;100.00
23131;BME280;11734;51.046;13.778;2022-09-02T07:55:40;70842.97;;;16.65;100.00
23131;BME280;11734;51.046;13.778;2022-09-02T07:58:09;70853.31;;;16.67;100.00
23131;BME280;11734;51.046;13.778;2022-09-02T08:00:43;70864.22;;;16.74;100.00
23131;BME280;11734;51.046;13.778;2022-09-02T08:03:11;70898.75;;;16.87;100.00
23131;BME280;11734;51.046;13.778;2022-09-02T08:05:46;70912.91;;;16.95;99.56
23131;BME280;11734;51.046;13.778;2022-09-02T08:08:16;70965.22;;;17.15;98.52
23131;BME280;11734;51.046;13.778;2022-09-02T08:10:48;70958.88;;;17.25;98.53
23131;BME280;11734;51.046;13.778;2022-09-02T08:13:17;70967.97;;;17.35;97.89
23131;BME280;11734;51.046;13.778;2022-09-02T08:15:45;71003.38;;;17.57;94.11
23131;BME280;11734;51.046;13.778;2022-09-02T08:18:17;71010.34;;;17.72;93.18
23131;BME280;11734;51.046;13.778;2022-09-02T08:20:48;71032.13;;;17.90;90.77
23131;BME280;11734;51.046;13.778;2022-09-02T08:23:16;71123.44;;;18.09;89.68
23131;BME280;11734;51.046;13.778;2022-09-02T08:26:03;71122.00;;;18.31;88.13
23131;BME280;11734;51.046;13.778;2022-09-02T08:28:32;71182.91;;;18.65;86.93
23131;BME280;11734;51.046;13.778;2022-09-02T08:31:04;71253.31;;;19.02;80.39
23131;BME280;11734;51.046;13.778;2022-09-02T08:33:31;71277.56;;;19.44;76.71
23131;BME280;11734;51.046;13.778;2022-09-02T08:36:07;71361.06;;;19.88;75.71
23131;BME280;11734;51.046;13.778;2022-09-02T08:38:37;71425.03;;;20.24;72.06
23131;BME280;11734;51.046;13.778;2022-09-02T08:41:26;71509.53;;;20.71;70.67
23131;BME280;11734;51.046;13.778;2022-09-02T08:43:58;71556.88;;;21.07;70.92
23131;BME280;11734;51.046;13.778;2022-09-02T08:46:30;71586.25;;;21.25;64.23
23131;BME280;11734;51.046;13.778;2022-09-02T08:49:06;71576.31;;;21.33;63.42
23131;BME280;11734;51.046;13.778;2022-09-02T08:54:29;71709.31;;;21.80;53.62
23131;BME280;11734;51.046;13.778;2022-09-02T08:56:58;71787.06;;;22.58;50.44
23131;BME280;11734;51.046;13.778;2022-09-02T08:59:27;71981.91;;;23.45;49.43
23131;BME280;11734;51.046;13.778;2022-09-02T09:02:06;72072.97;;;24.05;42.99
23131;BME280;11734;51.046;13.778;2022-09-02T09:19:09;72514.66;;;26.23;41.47
23131;BME280;11734;51.046;13.778;2022-09-02T09:21:38;72553.47;;;26.52;38.47
23131;BME280;11734;51.046;13.778;2022-09-02T09:24:50;72571.47;;;26.58;35.73
23131;BME280;11734;51.046;13.778;2022-09-02T09:27:20;72667.25;;;27.16;35.73
23131;BME280;11734;51.046;13.778;2022-09-02T09:29:49;72742.50;;;27.29;34.39
23131;BME280;11734;51.046;13.778;2022-09-02T09:34:57;72719.09;;;27.18;34.37
23131;BME280;11734;51.046;13.778;2022-09-02T09:37:45;72705.31;;;27.37;34.26
23131;BME280;11734;51.046;13.778;2022-09-02T09:40:29;72822.50;;;28.06;33.25
23131;BME280;11734;51.046;13.778;2022-09-02T09:45:46;72935.75;;;28.33;33.78
23131;BME280;11734;51.046;13.778;2022-09-02T09:48:25;72944.00;;;28.53;30.54
23131;BME280;11734;51.046;13.778;2022-09-02T09:53:33;72853.56;;;27.82;31.95
23131;BME280;11734;51.046;13.778;2022-09-02T09:58:35;72653.03;;;26.95;34.57
23131;BME280;11734;51.046;13.778;2022-09-02T10:01:17;72536.38;;;26.44;34.28
23131;BME280;11734;51.046;13.778;2022-09-02T10:06:56;72168.72;;;24.56;36.44
23131;BME280;11734;51.046;13.778;2022-09-02T10:09:32;72029.31;;;23.70;37.97
23131;BME280;11734;51.046;13.778;2022-09-02T10:12:10;71997.50;;;23.45;38.79
23131;BME280;11734;51.046;13.778;2022-09-02T10:14:45;71942.78;;;23.08;39.37
23131;BME280;11734;51.046;13.778;2022-09-02T10:20:21;71825.31;;;22.63;40.94
23131;BME280;11734;51.046;13.778;2022-09-02T10:23:20;71766.59;;;22.42;40.98
23131;BME280;11734;51.046;13.778;2022-09-02T10:37:20;71772.88;;;22.20;43.08
23131;BME280;11734;51.046;13.778;2022-09-02T10:40:14;71724.34;;;21.99;44.01
23131;BME280;11734;51.046;13.778;2022-09-02T10:42:54;71660.50;;;21.86;43.78
23131;BME280;11734;51.046;13.778;2022-09-02T10:45:47;71635.66;;;21.65;44.69
23131;BME280;11734;51.046;13.778;2022-09-02T10:55:10;71742.97;;;21.92;42.36
23131;BME280;11734;51.046;13.778;2022-09-02T11:00:28;71750.63;;;22.03;42.87
23131;BME280;11734;51.046;13.778;2022-09-02T11:05:54;71762.34;;;22.23;42.83
23131;BME280;11734;51.046;13.778;2022-09-02T11:08:42;71763.84;;;22.22;45.83
23131;BME280;11734;51.046;13.778;2022-09-02T11:22:58;71871.69;;;22.93;43.76
23131;BME280;11734;51.046;13.778;2022-09-02T11:25:37;72048.66;;;24.05;44.83
23131;BME280;11734;51.046;13.778;2022-09-02T11:37:10;72260.69;;;25.02;37.90
23131;BME280;11734;51.046;13.778;2022-09-02T11:39:58;72083.44;;;24.07;40.21
23131;BME280;11734;51.046;13.778;2022-09-02T11:49:43;71687.84;;;22.00;43.47
23131;BME280;11734;51.046;13.778;2022-09-02T11:55:09;71682.88;;;21.64;46.56
23131;BME280;11734;51.046;13.778;2022-09-02T11:57:54;71617.44;;;21.40;44.99
23131;BME280;11734;51.046;13.778;2022-09-02T12:03:26;71606.72;;;21.36;44.51
23131;BME280;11734;51.046;13.778;2022-09-02T12:06:19;71594.03;;;21.48;43.85
23131;BME280;11734;51.046;13.778;2022-09-02T12:17:06;71698.59;;;21.75;43.56
23131;BME280;11734;51.046;13.778;2022-09-02T12:24:59;71661.03;;;21.66;42.58
23131;BME280;11734;51.046;13.778;2022-09-02T12:27:35;71691.28;;;22.13;42.51
23131;BME280;11734;51.046;13.778;2022-09-02T12:30:07;71784.88;;;22.42;40.50
23131;BME280;11734;51.046;13.778;2022-09-02T12:49:42;71743.78;;;22.25;39.50
23131;BME280;11734;51.046;13.778;2022-09-02T12:52:42;71713.75;;;22.11;40.87
23131;BME280;11734;51.046;13.778;2022-09-02T12:55:29;71666.53;;;21.82;42.58
23131;BME280;11734;51.046;13.778;2022-09-02T12:58:12;71613.28;;;21.62;43.86
23131;BME280;11734;51.046;13.778;2022-09-02T13:06:09;71534.34;;;20.92;44.72
23131;BME280;11734;51.046;13.778;2022-09-02T13:34:01;71493.69;;;20.99;44.89
23131;BME280;11734;51.046;13.778;2022-09-02T13:36:45;71535.16;;;21.00;45.83
23131;BME280;11734;51.046;13.778;2022-09-02T13:39:15;71544.94;;;21.06;45.18
23131;BME280;11734;51.046;13.778;2022-09-02T13:41:44;71537.75;;;21.09;45.08
23131;BME280;11734;51.046;13.778;2022-09-02T13:44:26;71544.03;;;21.07;43.93
23131;BME280;11734;51.046;13.778;2022-09-02T13:47:04;71527.06;;;21.04;44.99
23131;BME280;11734;51.046;13.778;2022-09-02T13:49:45;71550.31;;;21.06;45.75
23131;BME280;11734;51.046;13.778;2022-09-02T13:52:20;71603.41;;;21.10;45.73
23131;BME280;11734;51.046;13.778;2022-09-02T13:55:12;71599.50;;;21.13;45.50
23131;BME280;11734;51.046;13.778;2022-09-02T13:57:49;71548.03;;;21.25;45.00
23131;BME280;11734;51.046;13.778;2022-09-02T14:00:37;71582.19;;;21.38;45.46
23131;BME280;11734;51.046;13.778;2022-09-02T14:03:17;71619.59;;;21.60;43.32
23131;BME280;11734;51.046;13.778;2022-09-02T14:05:51;71670.25;;;21.72;44.48
23131;BME280;11734;51.046;13.778;2022-09-02T14:08:23;71689.63;;;21.77;43.36
23131;BME280;11734;51.046;13.778;2022-09-02T14:10:53;71674.44;;;21.71;44.23
23131;BME280;11734;51.046;13.778;2022-09-02T14:13:22;71638.88;;;21.70;43.75
23131;BME280;11734;51.046;13.778;2022-09-02T14:15:49;71669.06;;;21.71;43.65
23131;BME280;11734;51.046;13.778;2022-09-02T14:18:21;71662.94;;;21.84;42.86
23131;BME280;11734;51.046;13.778;2022-09-02T14:23:47;71718.00;;;22.05;42.92
23131;BME280;11734;51.046;13.778;2022-09-02T14:26:36;71709.16;;;22.19;41.42
23131;BME280;11734;51.046;13.778;2022-09-02T14:29:12;71778.88;;;22.41;41.72
23131;BME280;11734;51.046;13.778;2022-09-02T14:31:40;71786.56;;;22.48;43.34
23131;BME280;11734;51.046;13.778;2022-09-02T14:34:39;71729.28;;;22.36;42.85
23131;BME280;11734;51.046;13.778;2022-09-02T14:37:33;71751.59;;;22.23;41.79
23131;BME280;11734;51.046;13.778;2022-09-02T14:40:12;71711.09;;;22.06;42.70
23131;BME280;11734;51.046;13.778;2022-09-02T14:42:49;71663.03;;;21.75;41.31
23131;BME280;11734;51.046;13.778;2022-09-02T14:45:33;71630.91;;;21.61;43.23
23131;BME280;11734;51.046;13.778;2022-09-02T14:48:14;71620.81;;;21.57;43.19
23131;BME280;11734;51.046;13.778;2022-09-02T14:50:45;71594.03;;;21.48;44.03
23131;BME280;11734;51.046;13.778;2022-09-02T14:53:21;71558.44;;;21.27;44.76
23131;BME280;11734;51.046;13.778;2022-09-02T14:55:55;71604.00;;;21.40;46.37
23131;BME280;11734;51.046;13.778;2022-09-02T14:58:26;71556.56;;;21.34;46.21
23131;BME280;11734;51.046;13.778;2022-09-02T15:00:58;71603.84;;;21.29;45.15
23131;BME280;11734;51.046;13.778;2022-09-02T15:03:29;71579.34;;;21.26;44.85
23131;BME280;11734;51.046;13.778;2022-09-02T15:05:57;71556.50;;;21.13;46.11
23131;BME280;11734;51.046;13.778;2022-09-02T15:08:24;71511.72;;;20.87;44.87
23131;BME280;11734;51.046;13.778;2022-09-02T15:10:53;71509.47;;;20.76;46.17
23131;BME280;11734;51.046;13.778;2022-09-02T15:13:33;71512.31;;;20.87;46.66
23131;BME280;11734;51.046;13.778;2022-09-02T15:16:01;71525.50;;;20.85;46.76
23131;BME280;11734;51.046;13.778;2022-09-02T15:18:29;71436.13;;;20.47;47.06
23131;BME280;11734;51.046;13.778;2022-09-02T15:20:56;71467.75;;;20.72;48.29
23131;BME280;11734;51.046;13.778;2022-09-02T15:23:24;71484.34;;;20.82;48.45
23131;BME280;11734;51.046;13.778;2022-09-02T15:25:54;71517.50;;;21.05;48.35
23131;BME280;11734;51.046;13.778;2022-09-02T15:28:21;71560.94;;;21.20;46.41
23131;BME280;11734;51.046;13.778;2022-09-02T15:30:56;71604.00;;;21.40;45.27
23131;BME280;11734;51.046;13.778;2022-09-02T15:33:23;71589.25;;;21.48;45.89
23131;BME280;11734;51.046;13.778;2022-09-02T15:35:50;71583.94;;;21.44;46.53
23131;BME280;11734;51.046;13.778;2022-09-02T15:38:17;71563.06;;;21.40;45.35
23131;BME280;11734;51.046;13.778;2022-09-02T15:40:44;71591.44;;;21.39;45.25
23131;BME280;11734;51.046;13.778;2022-09-02T15:43:12;71561.88;;;21.39;43.87
23131;BME280;11734;51.046;13.778;2022-09-02T15:45:46;71588.13;;;21.43;46.82
23131;BME280;11734;51.046;13.778;2022-09-02T15:48:16;71597.03;;;21.46;46.53